sensor_id;sensor_type;location;lat;lon;timestamp;P1;durP1;ratioP1;P2;durP2;ratioP2
51048;SDS011;37084;55.228;36.450;2024-03-23T00:55:37;29.02;;;12.65;;
51048;SDS011;37084;55.228;36.450;2024-03-23T00:58:39;38.30;;;13.68;;
51048;SDS011;37084;55.228;36.450;2024-03-23T01:01:40;31.83;;;12.93;;
51048;SDS011;37084;55.228;36.450;2024-03-23T01:04:42;29.13;;;12.70;;
51048;SDS011;37084;55.228;36.450;2024-03-23T01:07:43;26.90;;;11.13;;
51048;SDS011;37084;55.228;36.450;2024-03-23T01:10:53;28.80;;;12.93;;
51048;SDS011;37084;55.228;36.450;2024-03-23T01:13:58;29.00;;;13.18;;
51048;SDS011;37084;55.228;36.450;2024-03-23T01:16:59;23.13;;;9.63;;
51048;SDS011;37084;55.228;36.450;2024-03-23T01:20:01;30.50;;;12.77;;
51048;SDS011;37084;55.228;36.450;2024-03-23T01:23:05;26.48;;;10.00;;
51048;SDS011;37084;55.228;36.450;2024-03-23T01:26:06;24.20;;;9.95;;
51048;SDS011;37084;55.228;36.450;2024-03-23T01:29:07;29.88;;;12.05;;
51048;SDS011;37084;55.228;36.450;2024-03-23T01:32:09;35.42;;;13.88;;
51048;SDS011;37084;55.228;36.450;2024-03-23T01:35:10;32.70;;;11.60;;
51048;SDS011;37084;55.228;36.450;2024-03-23T01:38:11;26.88;;;10.52;;
51048;SDS011;37084;55.228;36.450;2024-03-23T01:41:12;25.25;;;11.10;;
51048;SDS011;37084;55.228;36.450;2024-03-23T01:44:14;27.98;;;12.75;;
51048;SDS011;37084;55.228;36.450;2024-03-23T01:47:17;39.78;;;13.85;;
51048;SDS011;37084;55.228;36.450;2024-03-23T01:50:18;25.42;;;10.88;;
51048;SDS011;37084;55.228;36.450;2024-03-23T01:53:20;26.70;;;12.00;;
51048;SDS011;37084;55.228;36.450;2024-03-23T01:56:24;29.45;;;11.63;;
51048;SDS011;37084;55.228;36.450;2024-03-23T01:59:25;30.27;;;13.25;;
51048;SDS011;37084;55.228;36.450;2024-03-23T02:02:30;34.38;;;13.80;;
51048;SDS011;37084;55.228;36.450;2024-03-23T02:05:31;34.83;;;15.20;;
51048;SDS011;37084;55.228;36.450;2024-03-23T02:08:33;29.80;;;13.13;;
51048;SDS011;37084;55.228;36.450;2024-03-23T02:11:34;34.85;;;15.98;;
51048;SDS011;37084;55.228;36.450;2024-03-23T02:14:36;36.28;;;13.75;;
51048;SDS011;37084;55.228;36.450;2024-03-23T02:17:37;34.08;;;12.85;;
51048;SDS011;37084;55.228;36.450;2024-03-23T02:20:39;33.00;;;13.13;;
51048;SDS011;37084;55.228;36.450;2024-03-23T02:23:40;29.25;;;11.52;;
51048;SDS011;37084;55.228;36.450;2024-03-23T02:26:41;23.98;;;10.70;;
51048;SDS011;37084;55.228;36.450;2024-03-23T02:29:43;33.38;;;13.02;;
51048;SDS011;37084;55.228;36.450;2024-03-23T02:32:44;30.05;;;12.75;;
51048;SDS011;37084;55.228;36.450;2024-03-23T02:35:46;37.90;;;15.18;;
51048;SDS011;37084;55.228;36.450;2024-03-23T02:38:48;28.75;;;10.23;;
51048;SDS011;37084;55.228;36.450;2024-03-23T02:41:50;32.15;;;12.50;;
51048;SDS011;37084;55.228;36.450;2024-03-23T02:44:51;27.70;;;11.75;;
51048;SDS011;37084;55.228;36.450;2024-03-23T02:47:52;23.50;;;12.35;;
51048;SDS011;37084;55.228;36.450;2024-03-23T02:50:54;32.55;;;13.88;;
51048;SDS011;37084;55.228;36.450;2024-03-23T02:53:55;28.58;;;12.23;;
51048;SDS011;37084;55.228;36.450;2024-03-23T02:56:57;34.55;;;13.30;;
51048;SDS011;37084;55.228;36.450;2024-03-23T02:59:58;33.80;;;14.63;;
51048;SDS011;37084;55.228;36.450;2024-03-23T03:03:03;27.23;;;12.10;;
51048;SDS011;37084;55.228;36.450;2024-03-23T03:06:04;22.17;;;10.40;;
51048;SDS011;37084;55.228;36.450;2024-03-23T03:09:06;29.13;;;11.90;;
51048;SDS011;37084;55.228;36.450;2024-03-23T03:12:08;22.85;;;10.50;;
51048;SDS011;37084;55.228;36.450;2024-03-23T03:15:09;25.50;;;10.95;;
51048;SDS011;37084;55.228;36.450;2024-03-23T03:18:11;24.65;;;11.98;;
51048;SDS011;37084;55.228;36.450;2024-03-23T03:21:12;27.45;;;11.93;;
51048;SDS011;37084;55.228;36.450;2024-03-23T03:24:13;29.13;;;12.48;;
51048;SDS011;37084;55.228;36.450;2024-03-23T03:27:15;23.40;;;10.23;;
51048;SDS011;37084;55.228;36.450;2024-03-23T03:30:16;33.88;;;14.40;;
51048;SDS011;37084;55.228;36.450;2024-03-23T03:33:17;27.30;;;12.13;;
51048;SDS011;37084;55.228;36.450;2024-03-23T03:36:19;28.50;;;11.23;;
51048;SDS011;37084;55.228;36.450;2024-03-23T03:39:20;25.92;;;10.60;;
51048;SDS011;37084;55.228;36.450;2024-03-23T03:42:23;28.77;;;11.20;;
51048;SDS011;37084;55.228;36.450;2024-03-23T03:45:24;21.23;;;9.63;;
51048;SDS011;37084;55.228;36.450;2024-03-23T03:48:26;23.23;;;10.65;;
51048;SDS011;37084;55.228;36.450;2024-03-23T03:51:28;27.17;;;12.02;;
51048;SDS011;37084;55.228;36.450;2024-03-23T03:54:29;28.63;;;11.20;;
51048;SDS011;37084;55.228;36.450;2024-03-23T03:57:31;23.27;;;10.05;;
51048;SDS011;37084;55.228;36.450;2024-03-23T04:00:32;19.63;;;9.75;;
51048;SDS011;37084;55.228;36.450;2024-03-23T04:03:34;26.67;;;12.60;;
51048;SDS011;37084;55.228;36.450;2024-03-23T04:06:36;23.23;;;10.05;;
51048;SDS011;37084;55.228;36.450;2024-03-23T04:09:37;32.15;;;12.25;;
51048;SDS011;37084;55.228;36.450;2024-03-23T04:12:38;30.20;;;12.27;;
51048;SDS011;37084;55.228;36.450;2024-03-23T04:15:40;33.78;;;13.10;;
51048;SDS011;37084;55.228;36.450;2024-03-23T04:18:41;24.85;;;11.07;;
51048;SDS011;37084;55.228;36.450;2024-03-23T04:21:43;22.83;;;10.68;;
51048;SDS011;37084;55.228;36.450;2024-03-23T04:24:45;20.88;;;9.10;;
51048;SDS011;37084;55.228;36.450;2024-03-23T04:27:46;22.83;;;10.32;;
51048;SDS011;37084;55.228;36.450;2024-03-23T04:30:47;28.25;;;11.98;;
51048;SDS011;37084;55.228;36.450;2024-03-23T04:33:49;26.17;;;11.50;;
51048;SDS011;37084;55.228;36.450;2024-03-23T04:36:50;25.55;;;10.68;;
51048;SDS011;37084;55.228;36.450;2024-03-23T04:39:51;26.30;;;10.30;;
51048;SDS011;37084;55.228;36.450;2024-03-23T04:42:53;20.20;;;10.43;;
51048;SDS011;37084;55.228;36.450;2024-03-23T04:45:54;19.30;;;9.85;;
51048;SDS011;37084;55.228;36.450;2024-03-23T04:48:56;20.00;;;9.77;;
51048;SDS011;37084;55.228;36.450;2024-03-23T04:51:57;27.58;;;11.02;;
51048;SDS011;37084;55.228;36.450;2024-03-23T04:54:59;23.17;;;12.23;;
51048;SDS011;37084;55.228;36.450;2024-03-23T04:58:00;22.67;;;11.07;;
51048;SDS011;37084;55.228;36.450;2024-03-23T05:01:02;27.42;;;13.75;;
51048;SDS011;37084;55.228;36.450;2024-03-23T05:04:04;20.15;;;9.77;;
51048;SDS011;37084;55.228;36.450;2024-03-23T05:07:06;24.88;;;10.88;;
51048;SDS011;37084;55.228;36.450;2024-03-23T05:10:09;21.50;;;9.90;;
51048;SDS011;37084;55.228;36.450;2024-03-23T05:13:14;24.17;;;11.50;;
51048;SDS011;37084;55.228;36.450;2024-03-23T05:16:16;28.17;;;11.27;;
51048;SDS011;37084;55.228;36.450;2024-03-23T05:19:17;16.70;;;8.25;;
51048;SDS011;37084;55.228;36.450;2024-03-23T05:22:18;15.77;;;9.20;;
51048;SDS011;37084;55.228;36.450;2024-03-23T05:25:19;19.45;;;10.10;;
51048;SDS011;37084;55.228;36.450;2024-03-23T05:28:21;21.67;;;10.45;;
51048;SDS011;37084;55.228;36.450;2024-03-23T05:31:26;22.10;;;9.65;;
51048;SDS011;37084;55.228;36.450;2024-03-23T05:34:29;28.38;;;12.15;;
51048;SDS011;37084;55.228;36.450;2024-03-23T05:37:31;23.90;;;10.25;;
51048;SDS011;37084;55.228;36.450;2024-03-23T05:40:34;30.13;;;14.60;;
51048;SDS011;37084;55.228;36.450;2024-03-23T05:43:38;28.42;;;11.43;;
51048;SDS011;37084;55.228;36.450;2024-03-23T05:46:39;27.38;;;11.15;;
51048;SDS011;37084;55.228;36.450;2024-03-23T05:49:40;30.88;;;13.10;;
51048;SDS011;37084;55.228;36.450;2024-03-23T05:52:44;23.08;;;10.95;;
51048;SDS011;37084;55.228;36.450;2024-03-23T05:55:46;27.20;;;11.93;;
51048;SDS011;37084;55.228;36.450;2024-03-23T05:58:50;29.05;;;11.70;;
51048;SDS011;37084;55.228;36.450;2024-03-23T06:01:51;27.48;;;11.27;;
51048;SDS011;37084;55.228;36.450;2024-03-23T06:04:53;26.17;;;11.63;;
51048;SDS011;37084;55.228;36.450;2024-03-23T06:07:54;31.67;;;14.13;;
51048;SDS011;37084;55.228;36.450;2024-03-23T06:10:55;27.35;;;11.05;;
51048;SDS011;37084;55.228;36.450;2024-03-23T06:13:57;22.75;;;9.77;;
51048;SDS011;37084;55.228;36.450;2024-03-23T06:16:58;26.60;;;13.48;;
51048;SDS011;37084;55.228;36.450;2024-03-23T06:20:00;25.85;;;10.73;;
51048;SDS011;37084;55.228;36.450;2024-03-23T06:23:02;28.42;;;11.10;;
51048;SDS011;37084;55.228;36.450;2024-03-23T06:26:04;21.15;;;9.50;;
51048;SDS011;37084;55.228;36.450;2024-03-23T06:29:05;27.00;;;11.00;;
51048;SDS011;37084;55.228;36.450;2024-03-23T06:32:07;26.23;;;12.27;;
51048;SDS011;37084;55.228;36.450;2024-03-23T06:35:08;27.00;;;11.38;;
51048;SDS011;37084;55.228;36.450;2024-03-23T06:38:10;16.70;;;8.27;;
51048;SDS011;37084;55.228;36.450;2024-03-23T06:41:11;19.08;;;7.90;;
51048;SDS011;37084;55.228;36.450;2024-03-23T06:44:13;25.25;;;10.90;;
51048;SDS011;37084;55.228;36.450;2024-03-23T06:47:14;24.10;;;10.13;;
51048;SDS011;37084;55.228;36.450;2024-03-23T06:50:15;24.48;;;10.98;;
51048;SDS011;37084;55.228;36.450;2024-03-23T06:53:17;21.15;;;9.93;;
51048;SDS011;37084;55.228;36.450;2024-03-23T06:56:18;20.75;;;9.32;;
51048;SDS011;37084;55.228;36.450;2024-03-23T06:59:19;22.65;;;11.15;;
51048;SDS011;37084;55.228;36.450;2024-03-23T07:02:20;26.17;;;11.98;;
51048;SDS011;37084;55.228;36.450;2024-03-23T07:05:22;21.45;;;9.38;;
51048;SDS011;37084;55.228;36.450;2024-03-23T07:08:23;21.63;;;10.57;;
51048;SDS011;37084;55.228;36.450;2024-03-23T07:11:24;20.60;;;9.25;;
51048;SDS011;37084;55.228;36.450;2024-03-23T07:14:27;22.38;;;10.80;;
51048;SDS011;37084;55.228;36.450;2024-03-23T07:17:28;24.70;;;11.43;;
51048;SDS011;37084;55.228;36.450;2024-03-23T07:20:30;18.95;;;9.40;;
51048;SDS011;37084;55.228;36.450;2024-03-23T07:23:32;27.95;;;11.80;;
51048;SDS011;37084;55.228;36.450;2024-03-23T07:26:34;22.00;;;9.63;;
51048;SDS011;37084;55.228;36.450;2024-03-23T07:29:35;25.77;;;11.95;;
51048;SDS011;37084;55.228;36.450;2024-03-23T07:32:37;21.23;;;10.02;;
51048;SDS011;37084;55.228;36.450;2024-03-23T07:35:39;28.92;;;11.80;;
51048;SDS011;37084;55.228;36.450;2024-03-23T07:38:40;23.55;;;10.40;;
51048;SDS011;37084;55.228;36.450;2024-03-23T07:41:44;22.77;;;10.10;;
51048;SDS011;37084;55.228;36.450;2024-03-23T07:44:46;22.45;;;10.40;;
51048;SDS011;37084;55.228;36.450;2024-03-23T07:47:47;26.45;;;11.23;;
51048;SDS011;37084;55.228;36.450;2024-03-23T07:53:59;23.08;;;10.80;;
51048;SDS011;37084;55.228;36.450;2024-03-23T07:57:00;20.08;;;9.68;;
51048;SDS011;37084;55.228;36.450;2024-03-23T08:00:02;18.27;;;8.55;;
51048;SDS011;37084;55.228;36.450;2024-03-23T08:03:05;21.35;;;11.00;;
51048;SDS011;37084;55.228;36.450;2024-03-23T08:06:13;17.80;;;8.68;;
51048;SDS011;37084;55.228;36.450;2024-03-23T08:09:15;21.30;;;9.85;;
51048;SDS011;37084;55.228;36.450;2024-03-23T08:12:16;22.38;;;10.93;;
51048;SDS011;37084;55.228;36.450;2024-03-23T08:15:18;25.58;;;10.95;;
51048;SDS011;37084;55.228;36.450;2024-03-23T08:18:19;22.88;;;10.40;;
51048;SDS011;37084;55.228;36.450;2024-03-23T08:21:21;22.48;;;10.02;;
51048;SDS011;37084;55.228;36.450;2024-03-23T08:24:23;22.95;;;9.82;;
51048;SDS011;37084;55.228;36.450;2024-03-23T08:27:24;20.85;;;9.63;;
51048;SDS011;37084;55.228;36.450;2024-03-23T08:30:26;16.90;;;8.40;;
51048;SDS011;37084;55.228;36.450;2024-03-23T08:33:27;23.40;;;10.25;;
51048;SDS011;37084;55.228;36.450;2024-03-23T08:36:28;17.70;;;7.47;;
51048;SDS011;37084;55.228;36.450;2024-03-23T08:39:31;23.38;;;10.25;;
51048;SDS011;37084;55.228;36.450;2024-03-23T08:42:32;16.23;;;7.43;;
51048;SDS011;37084;55.228;36.450;2024-03-23T08:45:34;20.63;;;7.93;;
51048;SDS011;37084;55.228;36.450;2024-03-23T08:48:38;18.75;;;9.52;;
51048;SDS011;37084;55.228;36.450;2024-03-23T08:51:44;19.88;;;8.70;;
51048;SDS011;37084;55.228;36.450;2024-03-23T08:54:49;23.02;;;10.05;;
51048;SDS011;37084;55.228;36.450;2024-03-23T08:57:50;22.58;;;9.55;;
51048;SDS011;37084;55.228;36.450;2024-03-23T09:00:52;25.10;;;11.05;;
51048;SDS011;37084;55.228;36.450;2024-03-23T09:03:54;22.63;;;10.10;;
51048;SDS011;37084;55.228;36.450;2024-03-23T09:06:56;16.92;;;8.80;;
51048;SDS011;37084;55.228;36.450;2024-03-23T09:10:00;21.05;;;10.60;;
51048;SDS011;37084;55.228;36.450;2024-03-23T09:13:04;21.50;;;10.18;;
51048;SDS011;37084;55.228;36.450;2024-03-23T09:16:06;19.42;;;9.70;;
51048;SDS011;37084;55.228;36.450;2024-03-23T09:19:08;23.10;;;9.93;;
51048;SDS011;37084;55.228;36.450;2024-03-23T09:22:09;19.90;;;9.20;;
51048;SDS011;37084;55.228;36.450;2024-03-23T09:25:10;17.65;;;8.88;;
51048;SDS011;37084;55.228;36.450;2024-03-23T09:28:12;16.15;;;7.72;;
51048;SDS011;37084;55.228;36.450;2024-03-23T09:31:13;12.77;;;6.28;;
51048;SDS011;37084;55.228;36.450;2024-03-23T09:34:15;22.23;;;10.13;;
51048;SDS011;37084;55.228;36.450;2024-03-23T09:37:17;19.85;;;9.18;;
51048;SDS011;37084;55.228;36.450;2024-03-23T09:40:18;15.07;;;7.65;;
51048;SDS011;37084;55.228;36.450;2024-03-23T09:43:20;22.73;;;10.43;;
51048;SDS011;37084;55.228;36.450;2024-03-23T09:46:22;19.48;;;9.73;;
51048;SDS011;37084;55.228;36.450;2024-03-23T09:49:23;21.83;;;9.60;;
51048;SDS011;37084;55.228;36.450;2024-03-23T09:52:25;21.35;;;10.38;;
51048;SDS011;37084;55.228;36.450;2024-03-23T09:55:26;20.88;;;9.70;;
51048;SDS011;37084;55.228;36.450;2024-03-23T09:58:27;18.30;;;9.68;;
51048;SDS011;37084;55.228;36.450;2024-03-23T10:01:29;10.00;;;6.55;;
51048;SDS011;37084;55.228;36.450;2024-03-23T10:04:38;20.75;;;10.05;;
51048;SDS011;37084;55.228;36.450;2024-03-23T10:07:42;19.70;;;8.80;;
51048;SDS011;37084;55.228;36.450;2024-03-23T10:10:44;19.20;;;8.90;;
51048;SDS011;37084;55.228;36.450;2024-03-23T10:13:46;18.52;;;9.77;;
51048;SDS011;37084;55.228;36.450;2024-03-23T10:16:48;20.17;;;9.25;;
51048;SDS011;37084;55.228;36.450;2024-03-23T10:19:50;14.73;;;7.07;;
51048;SDS011;37084;55.228;36.450;2024-03-23T10:22:55;15.88;;;8.07;;
51048;SDS011;37084;55.228;36.450;2024-03-23T10:26:39;21.33;;;9.20;;
51048;SDS011;37084;55.228;36.450;2024-03-23T10:29:22;19.55;;;8.32;;
51048;SDS011;37084;55.228;36.450;2024-03-23T10:32:24;16.00;;;8.27;;
51048;SDS011;37084;55.228;36.450;2024-03-23T10:35:25;20.75;;;8.23;;
51048;SDS011;37084;55.228;36.450;2024-03-23T10:38:26;24.38;;;10.38;;
51048;SDS011;37084;55.228;36.450;2024-03-23T10:41:28;19.45;;;8.88;;
51048;SDS011;37084;55.228;36.450;2024-03-23T10:44:32;12.70;;;7.30;;
51048;SDS011;37084;55.228;36.450;2024-03-23T10:47:35;17.83;;;9.60;;
51048;SDS011;37084;55.228;36.450;2024-03-23T10:50:37;20.67;;;9.13;;
51048;SDS011;37084;55.228;36.450;2024-03-23T10:53:38;19.52;;;9.18;;
51048;SDS011;37084;55.228;36.450;2024-03-23T10:56:40;23.75;;;10.50;;
51048;SDS011;37084;55.228;36.450;2024-03-23T10:59:42;20.48;;;9.68;;
51048;SDS011;37084;55.228;36.450;2024-03-23T11:02:45;21.02;;;10.50;;
51048;SDS011;37084;55.228;36.450;2024-03-23T11:05:46;24.15;;;10.85;;
51048;SDS011;37084;55.228;36.450;2024-03-23T11:08:48;25.30;;;11.07;;
51048;SDS011;37084;55.228;36.450;2024-03-23T11:11:55;23.30;;;10.60;;
51048;SDS011;37084;55.228;36.450;2024-03-23T11:14:57;23.92;;;10.80;;
51048;SDS011;37084;55.228;36.450;2024-03-23T11:18:04;23.50;;;11.40;;
51048;SDS011;37084;55.228;36.450;2024-03-23T11:21:08;22.10;;;10.50;;
51048;SDS011;37084;55.228;36.450;2024-03-23T11:24:13;23.77;;;11.88;;
51048;SDS011;37084;55.228;36.450;2024-03-23T11:27:16;22.98;;;10.98;;
51048;SDS011;37084;55.228;36.450;2024-03-23T11:30:18;19.95;;;8.10;;
51048;SDS011;37084;55.228;36.450;2024-03-23T11:33:21;23.33;;;10.48;;
51048;SDS011;37084;55.228;36.450;2024-03-23T11:36:22;18.08;;;10.52;;
51048;SDS011;37084;55.228;36.450;2024-03-23T11:39:23;17.30;;;8.27;;
51048;SDS011;37084;55.228;36.450;2024-03-23T11:42:24;23.50;;;9.85;;
51048;SDS011;37084;55.228;36.450;2024-03-23T11:45:26;20.35;;;9.35;;
51048;SDS011;37084;55.228;36.450;2024-03-23T11:48:29;18.85;;;8.57;;
51048;SDS011;37084;55.228;36.450;2024-03-23T11:51:31;22.85;;;9.75;;
51048;SDS011;37084;55.228;36.450;2024-03-23T11:54:35;19.27;;;9.05;;
51048;SDS011;37084;55.228;36.450;2024-03-23T11:57:37;22.00;;;10.00;;
51048;SDS011;37084;55.228;36.450;2024-03-23T12:00:38;22.05;;;9.55;;
51048;SDS011;37084;55.228;36.450;2024-03-23T12:03:43;20.75;;;10.13;;
51048;SDS011;37084;55.228;36.450;2024-03-23T12:06:45;18.00;;;9.45;;
51048;SDS011;37084;55.228;36.450;2024-03-23T12:10:02;18.88;;;8.90;;
51048;SDS011;37084;55.228;36.450;2024-03-23T12:13:05;16.23;;;7.25;;
51048;SDS011;37084;55.228;36.450;2024-03-23T12:16:10;18.15;;;8.10;;
51048;SDS011;37084;55.228;36.450;2024-03-23T12:19:13;19.48;;;9.57;;
51048;SDS011;37084;55.228;36.450;2024-03-23T12:22:14;20.65;;;10.55;;
51048;SDS011;37084;55.228;36.450;2024-03-23T12:25:16;17.98;;;8.75;;
51048;SDS011;37084;55.228;36.450;2024-03-23T12:28:18;18.67;;;8.43;;
51048;SDS011;37084;55.228;36.450;2024-03-23T12:31:20;17.25;;;8.15;;
51048;SDS011;37084;55.228;36.450;2024-03-23T12:34:21;15.23;;;8.38;;
51048;SDS011;37084;55.228;36.450;2024-03-23T12:37:22;22.40;;;9.52;;
51048;SDS011;37084;55.228;36.450;2024-03-23T12:40:24;21.95;;;9.15;;
51048;SDS011;37084;55.228;36.450;2024-03-23T12:43:25;15.50;;;7.95;;
51048;SDS011;37084;55.228;36.450;2024-03-23T12:46:26;22.17;;;10.13;;
51048;SDS011;37084;55.228;36.450;2024-03-23T12:49:27;23.63;;;9.73;;
51048;SDS011;37084;55.228;36.450;2024-03-23T12:52:31;16.70;;;7.38;;
51048;SDS011;37084;55.228;36.450;2024-03-23T12:55:35;19.42;;;8.85;;
51048;SDS011;37084;55.228;36.450;2024-03-23T12:58:37;20.77;;;9.48;;
51048;SDS011;37084;55.228;36.450;2024-03-23T13:01:38;15.63;;;7.57;;
51048;SDS011;37084;55.228;36.450;2024-03-23T13:04:40;14.20;;;7.53;;
51048;SDS011;37084;55.228;36.450;2024-03-23T13:07:41;16.65;;;7.93;;
51048;SDS011;37084;55.228;36.450;2024-03-23T13:10:43;15.10;;;7.28;;
51048;SDS011;37084;55.228;36.450;2024-03-23T13:13:45;20.70;;;10.70;;
51048;SDS011;37084;55.228;36.450;2024-03-23T13:16:47;15.27;;;7.95;;
51048;SDS011;37084;55.228;36.450;2024-03-23T13:19:48;20.85;;;8.35;;
51048;SDS011;37084;55.228;36.450;2024-03-23T13:22:49;19.02;;;9.20;;
51048;SDS011;37084;55.228;36.450;2024-03-23T13:25:54;18.65;;;8.52;;
51048;SDS011;37084;55.228;36.450;2024-03-23T13:28:56;17.27;;;8.73;;
51048;SDS011;37084;55.228;36.450;2024-03-23T13:31:57;15.05;;;7.80;;
51048;SDS011;37084;55.228;36.450;2024-03-23T13:34:58;19.10;;;8.68;;
51048;SDS011;37084;55.228;36.450;2024-03-23T13:38:00;17.73;;;8.90;;
51048;SDS011;37084;55.228;36.450;2024-03-23T13:41:01;12.70;;;6.22;;
51048;SDS011;37084;55.228;36.450;2024-03-23T13:44:05;14.38;;;6.60;;
51048;SDS011;37084;55.228;36.450;2024-03-23T13:47:07;15.15;;;7.38;;
51048;SDS011;37084;55.228;36.450;2024-03-23T13:50:09;17.25;;;7.50;;
51048;SDS011;37084;55.228;36.450;2024-03-23T13:53:10;17.27;;;8.07;;
51048;SDS011;37084;55.228;36.450;2024-03-23T13:56:12;16.83;;;8.13;;
51048;SDS011;37084;55.228;36.450;2024-03-23T13:59:14;15.40;;;7.38;;
51048;SDS011;37084;55.228;36.450;2024-03-23T14:02:15;13.85;;;7.60;;
51048;SDS011;37084;55.228;36.450;2024-03-23T14:05:17;14.18;;;6.70;;
51048;SDS011;37084;55.228;36.450;2024-03-23T14:08:19;15.60;;;7.75;;
51048;SDS011;37084;55.228;36.450;2024-03-23T14:11:22;13.82;;;6.72;;
51048;SDS011;37084;55.228;36.450;2024-03-23T14:14:23;14.40;;;6.93;;
51048;SDS011;37084;55.228;36.450;2024-03-23T14:17:25;17.77;;;7.93;;
51048;SDS011;37084;55.228;36.450;2024-03-23T14:20:27;15.40;;;7.55;;
51048;SDS011;37084;55.228;36.450;2024-03-23T14:23:29;13.13;;;7.38;;
51048;SDS011;37084;55.228;36.450;2024-03-23T14:26:34;14.43;;;7.57;;
51048;SDS011;37084;55.228;36.450;2024-03-23T14:29:36;15.77;;;7.85;;
51048;SDS011;37084;55.228;36.450;2024-03-23T14:32:37;15.10;;;6.72;;
51048;SDS011;37084;55.228;36.450;2024-03-23T14:35:39;16.35;;;8.05;;
51048;SDS011;37084;55.228;36.450;2024-03-23T14:38:42;13.35;;;6.88;;
51048;SDS011;37084;55.228;36.450;2024-03-23T14:41:43;17.67;;;7.70;;
51048;SDS011;37084;55.228;36.450;2024-03-23T14:44:47;13.38;;;6.70;;
51048;SDS011;37084;55.228;36.450;2024-03-23T14:47:48;13.73;;;8.27;;
51048;SDS011;37084;55.228;36.450;2024-03-23T14:50:55;13.02;;;6.38;;
51048;SDS011;37084;55.228;36.450;2024-03-23T14:53:57;15.27;;;6.45;;
51048;SDS011;37084;55.228;36.450;2024-03-23T14:56:59;11.95;;;6.90;;
51048;SDS011;37084;55.228;36.450;2024-03-23T15:00:00;12.23;;;6.15;;
51048;SDS011;37084;55.228;36.450;2024-03-23T15:03:06;13.93;;;6.97;;
51048;SDS011;37084;55.228;36.450;2024-03-23T15:06:07;11.65;;;5.88;;
51048;SDS011;37084;55.228;36.450;2024-03-23T15:09:11;13.77;;;6.70;;
51048;SDS011;37084;55.228;36.450;2024-03-23T15:12:14;13.57;;;7.10;;
51048;SDS011;37084;55.228;36.450;2024-03-23T15:15:15;14.25;;;6.25;;
51048;SDS011;37084;55.228;36.450;2024-03-23T15:18:17;14.50;;;7.53;;
51048;SDS011;37084;55.228;36.450;2024-03-23T15:21:26;10.35;;;5.30;;
51048;SDS011;37084;55.228;36.450;2024-03-23T15:24:27;15.25;;;6.88;;
51048;SDS011;37084;55.228;36.450;2024-03-23T15:27:29;17.38;;;7.57;;
51048;SDS011;37084;55.228;36.450;2024-03-23T15:30:30;15.68;;;7.97;;
51048;SDS011;37084;55.228;36.450;2024-03-23T15:33:32;16.02;;;7.53;;
51048;SDS011;37084;55.228;36.450;2024-03-23T15:36:33;14.23;;;6.50;;
51048;SDS011;37084;55.228;36.450;2024-03-23T15:39:35;13.73;;;6.13;;
51048;SDS011;37084;55.228;36.450;2024-03-23T15:42:36;14.65;;;6.65;;
51048;SDS011;37084;55.228;36.450;2024-03-23T15:45:38;13.98;;;6.55;;
51048;SDS011;37084;55.228;36.450;2024-03-23T15:48:39;11.25;;;5.30;;
51048;SDS011;37084;55.228;36.450;2024-03-23T15:51:40;14.55;;;6.07;;
51048;SDS011;37084;55.228;36.450;2024-03-23T15:54:45;11.32;;;5.40;;
51048;SDS011;37084;55.228;36.450;2024-03-23T15:57:46;12.10;;;6.97;;
51048;SDS011;37084;55.228;36.450;2024-03-23T16:00:54;11.98;;;6.18;;
51048;SDS011;37084;55.228;36.450;2024-03-23T16:04:00;10.57;;;4.95;;
51048;SDS011;37084;55.228;36.450;2024-03-23T16:07:03;12.07;;;6.15;;
51048;SDS011;37084;55.228;36.450;2024-03-23T16:10:05;11.75;;;6.72;;
51048;SDS011;37084;55.228;36.450;2024-03-23T16:13:10;14.35;;;6.45;;
51048;SDS011;37084;55.228;36.450;2024-03-23T16:16:11;9.90;;;5.53;;
51048;SDS011;37084;55.228;36.450;2024-03-23T16:19:13;12.55;;;6.03;;
51048;SDS011;37084;55.228;36.450;2024-03-23T16:22:15;13.60;;;7.00;;
51048;SDS011;37084;55.228;36.450;2024-03-23T16:25:16;12.88;;;6.60;;
51048;SDS011;37084;55.228;36.450;2024-03-23T16:28:18;14.07;;;8.32;;
51048;SDS011;37084;55.228;36.450;2024-03-23T16:31:20;12.65;;;6.40;;
51048;SDS011;37084;55.228;36.450;2024-03-23T16:34:21;13.10;;;5.60;;
51048;SDS011;37084;55.228;36.450;2024-03-23T16:37:22;12.30;;;5.53;;
51048;SDS011;37084;55.228;36.450;2024-03-23T16:40:24;11.65;;;5.50;;
51048;SDS011;37084;55.228;36.450;2024-03-23T16:43:25;12.88;;;6.50;;
51048;SDS011;37084;55.228;36.450;2024-03-23T16:46:28;12.23;;;5.35;;
51048;SDS011;37084;55.228;36.450;2024-03-23T16:49:29;11.30;;;5.85;;
51048;SDS011;37084;55.228;36.450;2024-03-23T16:52:30;12.85;;;6.03;;
51048;SDS011;37084;55.228;36.450;2024-03-23T16:55:32;12.63;;;5.90;;
51048;SDS011;37084;55.228;36.450;2024-03-23T16:58:37;12.25;;;5.85;;
51048;SDS011;37084;55.228;36.450;2024-03-23T17:01:40;14.30;;;7.00;;
51048;SDS011;37084;55.228;36.450;2024-03-23T17:04:42;10.93;;;5.25;;
51048;SDS011;37084;55.228;36.450;2024-03-23T17:07:43;8.65;;;4.75;;
51048;SDS011;37084;55.228;36.450;2024-03-23T17:10:45;7.80;;;4.43;;
51048;SDS011;37084;55.228;36.450;2024-03-23T17:13:49;9.13;;;4.65;;
51048;SDS011;37084;55.228;36.450;2024-03-23T17:16:55;10.95;;;5.50;;
51048;SDS011;37084;55.228;36.450;2024-03-23T17:19:59;10.38;;;6.70;;
51048;SDS011;37084;55.228;36.450;2024-03-23T17:23:01;11.07;;;5.65;;
51048;SDS011;37084;55.228;36.450;2024-03-23T17:26:02;8.98;;;5.25;;
51048;SDS011;37084;55.228;36.450;2024-03-23T17:29:04;9.68;;;4.53;;
51048;SDS011;37084;55.228;36.450;2024-03-23T17:32:05;8.02;;;4.20;;
51048;SDS011;37084;55.228;36.450;2024-03-23T17:35:07;8.88;;;4.65;;
51048;SDS011;37084;55.228;36.450;2024-03-23T17:38:10;9.10;;;4.38;;
51048;SDS011;37084;55.228;36.450;2024-03-23T17:41:12;9.68;;;5.03;;
51048;SDS011;37084;55.228;36.450;2024-03-23T17:44:13;10.60;;;4.88;;
51048;SDS011;37084;55.228;36.450;2024-03-23T17:47:14;8.00;;;4.05;;
51048;SDS011;37084;55.228;36.450;2024-03-23T17:50:16;8.98;;;4.68;;
51048;SDS011;37084;55.228;36.450;2024-03-23T17:53:17;11.05;;;4.10;;
51048;SDS011;37084;55.228;36.450;2024-03-23T17:56:19;11.63;;;4.70;;
51048;SDS011;37084;55.228;36.450;2024-03-23T17:59:20;9.82;;;4.82;;
51048;SDS011;37084;55.228;36.450;2024-03-23T18:02:22;11.50;;;5.00;;
51048;SDS011;37084;55.228;36.450;2024-03-23T18:05:23;12.20;;;4.50;;
51048;SDS011;37084;55.228;36.450;2024-03-23T18:08:25;13.13;;;5.35;;
51048;SDS011;37084;55.228;36.450;2024-03-23T18:11:27;11.07;;;5.18;;
51048;SDS011;37084;55.228;36.450;2024-03-23T18:14:28;11.32;;;5.05;;
51048;SDS011;37084;55.228;36.450;2024-03-23T18:17:29;15.00;;;5.82;;
51048;SDS011;37084;55.228;36.450;2024-03-23T18:20:32;14.07;;;5.90;;
51048;SDS011;37084;55.228;36.450;2024-03-23T18:23:33;12.93;;;6.18;;
51048;SDS011;37084;55.228;36.450;2024-03-23T18:26:34;14.77;;;6.95;;
51048;SDS011;37084;55.228;36.450;2024-03-23T18:29:36;20.60;;;8.82;;
51048;SDS011;37084;55.228;36.450;2024-03-23T18:32:37;20.98;;;9.65;;
51048;SDS011;37084;55.228;36.450;2024-03-23T18:35:39;18.83;;;7.40;;